Terminal Aerodrome Forecast
Issued by NWS

Current Version | Previous Version | Text Only | Print | Product List | Glossary On
Versions: 1 2 3 4 5 6 7 8 9 10 11 12 13 14 15 16 17 18 19
777
FTUS42 KTAE 291731
TAFDHN
TAF
KDHN 291731Z 2918/3018 36005KT P6SM SCT040
     FM291900 30008KT P6SM VCTS BKN040CB
      TEMPO 2920/2924 VRB10G20KT 5SM -TSRA
     FM300100 20005KT P6SM SCT050=

USA.gov is the U.S. government's official web portal to all federal, state and local government web resources and services.